Time;durP1;ratioP1;P1;durP2;ratioP2;P2;SDS_P1;SDS_P2;PMS_P1;PMS_P2;Temp;Humidity;BMP_temperature;BMP_pressure;BME280_temperature;BME280_humidity;BME280_pressure;Samples;Min_cycle;Max_cycle;Signal;HPM_P1;HPM_P2
2022/09/07 00:01:53;;;;;;;20.13;10.87;;;;;;;-145.18;100.00;46633.06;4954430;28;20070;-64
2022/09/07 00:04:19;;;;;;;13.77;9.43;;;;;;;-145.18;100.00;46633.06;4953983;28;20166;-64
2022/09/07 00:06:44;;;;;;;16.53;8.93;;;;;;;-145.18;100.00;46633.06;4953585;28;20122;-63
2022/09/07 00:09:10;;;;;;;15.20;10.17;;;;;;;-145.18;100.00;46633.06;4954714;29;20042;-64
2022/09/07 00:11:35;;;;;;;15.37;9.23;;;;;;;-145.18;100.00;46629.13;4953158;29;20387;-64
2022/09/07 00:14:00;;;;;;;16.23;9.00;;;;;;;-145.18;100.00;46633.06;4954876;29;20554;-63
2022/09/07 00:16:29;;;;;;;16.53;9.67;;;;;;;-145.18;100.00;46631.09;4954173;28;20085;-64
2022/09/07 00:19:00;;;;;;;19.23;9.30;;;;;;;-145.18;100.00;46625.22;4954432;28;20037;-64
2022/09/07 00:21:26;;;;;;;15.13;8.77;;;;;;;-145.18;100.00;46629.13;4953488;28;20460;-64
2022/09/07 00:23:53;;;;;;;13.50;7.83;;;;;;;-145.18;100.00;46633.06;4952390;28;20253;-64
2022/09/07 00:26:24;;;;;;;11.17;7.10;;;;;;;-145.18;100.00;46635.00;4954224;28;20055;-64
2022/09/07 00:28:50;;;;;;;15.30;7.50;;;;;;;-145.18;100.00;46627.19;4953323;29;20499;-64
2022/09/07 00:31:18;;;;;;;16.23;6.57;;;;;;;-145.18;100.00;46631.09;4954407;28;20023;-63
2022/09/07 00:33:45;;;;;;;9.73;5.93;;;;;;;-145.18;100.00;46631.09;4954252;28;20041;-65
2022/09/07 00:36:11;;;;;;;15.60;6.40;;;;;;;-145.18;100.00;46627.19;4954491;28;20411;-64
2022/09/07 00:38:37;;;;;;;10.33;6.50;;;;;;;-145.18;100.00;46629.13;4954227;28;20031;-64
2022/09/07 00:41:02;;;;;;;13.53;6.40;;;;;;;-145.18;100.00;46631.09;4954562;28;20039;-64
2022/09/07 00:43:30;;;;;;;13.77;7.03;;;;;;;-145.18;100.00;46627.19;4953555;28;20131;-64
2022/09/07 00:45:56;;;;;;;8.83;5.63;;;;;;;-145.18;100.00;46631.09;4954425;28;20035;-64
2022/09/07 00:48:27;;;;;;;11.63;5.73;;;;;;;-145.18;100.00;46625.22;4953785;29;20093;-64
2022/09/07 00:50:59;;;;;;;8.73;5.13;;;;;;;-145.18;100.00;46633.06;4953527;28;20416;-64
2022/09/07 00:53:32;;;;;;;10.03;5.47;;;;;;;-145.18;100.00;46631.09;4952632;28;20049;-64
2022/09/07 00:55:59;;;;;;;10.97;5.50;;;;;;;-145.18;100.00;46627.19;4954087;28;20027;-65
2022/09/07 00:58:26;;;;;;;12.80;5.73;;;;;;;-145.18;100.00;46629.13;4953207;28;20031;-64
2022/09/07 01:00:51;;;;;;;17.57;5.37;;;;;;;-145.18;100.00;46629.13;4953819;28;20499;-64
2022/09/07 01:03:31;;;;;;;10.23;4.77;;;;;;;-145.18;100.00;46629.13;4952995;28;20059;-64
2022/09/07 01:06:25;;;;;;;7.03;4.10;;;;;;;-145.18;100.00;46627.19;4953240;28;20660;-64
2022/09/07 01:08:50;;;;;;;8.87;4.10;;;;;;;-145.18;100.00;46629.13;4932953;29;20428;-64
2022/09/07 01:11:21;;;;;;;9.53;4.53;;;;;;;-145.18;100.00;46635.00;4934479;29;20020;-64
2022/09/07 01:13:48;;;;;;;8.53;4.80;;;;;;;-145.18;100.00;46629.13;4935843;29;20047;-64
2022/09/07 01:16:35;;;;;;;8.93;4.00;;;;;;;-145.18;100.00;46633.06;4954023;28;20038;-64
2022/09/07 01:19:26;;;;;;;10.77;3.87;;;;;;;-145.18;100.00;46631.09;4953690;29;20039;-64
2022/09/07 01:22:47;;;;;;;8.13;4.07;;;;;;;-145.18;100.00;46631.09;4953755;28;20481;-64
2022/09/07 01:25:41;;;;;;;8.70;4.00;;;;;;;-145.18;100.00;46633.06;4954059;28;20428;-64
2022/09/07 01:28:18;;;;;;;9.57;3.70;;;;;;;-145.18;100.00;46631.09;4953657;28;20038;-64
2022/09/07 01:30:54;;;;;;;8.53;3.83;;;;;;;-145.18;100.00;46633.06;4953021;29;20477;-64
2022/09/07 01:33:32;;;;;;;;;;;;;;;-145.18;100.00;46629.13;4953761;28;20058;-64
2022/09/07 01:36:00;;;;;;;9.03;4.83;;;;;;;-145.18;100.00;46629.13;4952948;28;19919;-65
2022/09/07 01:38:43;;;;;;;10.87;5.23;;;;;;;-145.18;100.00;46631.09;4953399;29;20488;-65
2022/09/07 01:41:47;;;;;;;9.67;5.53;;;;;;;-145.18;100.00;46631.09;4953853;28;20023;-65
2022/09/07 01:44:23;;;;;;;10.73;5.20;;;;;;;-145.18;100.00;46635.00;4945358;29;20066;-66
2022/09/07 01:47:20;;;;;;;12.37;6.27;;;;;;;-145.18;100.00;46627.19;4952583;28;20038;-66
2022/09/07 01:50:06;;;;;;;10.63;6.10;;;;;;;-145.18;100.00;46627.19;4951700;29;20388;-66
2022/09/07 01:52:56;;;;;;;10.00;6.63;;;;;;;-145.18;100.00;46631.09;4952805;28;20077;-66
2022/09/07 01:55:29;;;;;;;10.30;6.30;;;;;;;-145.18;100.00;46631.09;4953370;28;20035;-66
2022/09/07 01:58:05;;;;;;;13.17;5.60;;;;;;;-145.18;100.00;46633.06;4953008;28;20028;-66
2022/09/07 02:03:13;;;;;;;9.10;5.75;;;;;;;-145.18;100.00;46631.09;5072524;23;20117;-66
2022/09/07 02:05:40;;;;;;;8.13;5.40;;;;;;;-145.18;100.00;46633.06;4989495;28;20030;-66
2022/09/07 02:08:20;;;;;;;5.97;4.17;;;;;;;-145.18;100.00;46633.06;4990627;28;20034;-66
2022/09/07 02:10:50;;;;;;;6.77;3.80;;;;;;;-145.18;100.00;46629.13;4988797;28;20085;-66
2022/09/07 02:13:44;;;;;;;6.27;3.67;;;;;;;-145.18;100.00;46635.00;4991346;28;20084;-66
2022/09/07 02:16:15;;;;;;;6.80;3.70;;;;;;;-145.18;100.00;46629.13;4989797;28;20042;-66
2022/09/07 02:18:45;;;;;;;5.57;3.30;;;;;;;-145.18;100.00;46629.13;4990957;28;20088;-66
2022/09/07 02:21:14;;;;;;;5.80;3.23;;;;;;;-145.18;100.00;46633.06;4990710;28;20028;-66
2022/09/07 02:24:03;;;;;;;4.37;2.77;;;;;;;-145.18;100.00;46633.06;4990697;28;20360;-66
2022/09/07 02:26:29;;;;;;;3.87;2.20;;;;;;;-145.18;100.00;46629.13;4990317;28;20030;-66
2022/09/07 02:28:55;;;;;;;5.07;2.80;;;;;;;-145.18;100.00;46633.06;4991166;28;20521;-66
2022/09/07 02:31:21;;;;;;;5.37;3.10;;;;;;;-145.18;100.00;46633.06;4991496;28;20053;-66
2022/09/07 02:33:47;;;;;;;5.63;2.50;;;;;;;-145.18;100.00;46629.13;4990804;28;20030;-66
2022/09/07 02:36:16;;;;;;;5.50;3.20;;;;;;;-145.18;100.00;46633.06;4991375;28;20045;-66
2022/09/07 02:38:41;;;;;;;5.50;2.83;;;;;;;-145.18;100.00;46635.00;4990575;28;20483;-66
2022/09/07 02:41:37;;;;;;;5.50;3.20;;;;;;;-145.18;100.00;46629.13;4990958;28;20065;-66
2022/09/07 02:44:07;;;;;;;5.63;3.00;;;;;;;-145.18;100.00;46629.13;4991254;28;20030;-66
2022/09/07 02:46:44;;;;;;;5.07;3.57;;;;;;;-145.18;100.00;46633.06;4990645;28;20092;-66
2022/09/07 02:49:32;;;;;;;7.67;3.37;;;;;;;-145.18;100.00;46631.09;4990888;28;20109;-66
2022/09/07 02:52:35;;;;;;;4.10;2.73;;;;;;;-145.18;100.00;46635.00;4990487;28;20037;-66
2022/09/07 02:55:41;;;;;;;4.90;3.50;;;;;;;-145.18;100.00;46631.09;4921752;28;20041;-66
2022/09/07 02:58:22;;;;;;;4.33;2.97;;;;;;;-145.18;100.00;46631.09;4970928;28;20027;-66
2022/09/07 03:00:55;;;;;;;3.93;2.67;;;;;;;-145.18;100.00;46633.06;4971256;28;20037;-66
2022/09/07 03:03:39;;;;;;;4.53;2.80;;;;;;;-145.18;100.00;46636.94;4951760;29;20169;-66
2022/09/07 03:06:12;;;;;;;5.97;3.07;;;;;;;-145.18;100.00;46633.06;4952172;29;20034;-66
2022/09/07 03:08:43;;;;;;;8.30;3.00;;;;;;;-145.18;100.00;46631.09;4966606;28;20514;-66
2022/09/07 03:11:09;;;;;;;4.70;2.60;;;;;;;-145.18;100.00;46633.06;4971393;28;20130;-66
2022/09/07 03:13:34;;;;;;;4.43;2.73;;;;;;;-145.18;100.00;46631.09;4971009;28;20130;-66
2022/09/07 03:15:59;;;;;;;2.87;1.90;;;;;;;-145.18;100.00;46635.00;4954323;28;20066;-66
2022/09/07 03:18:27;;;;;;;3.87;2.60;;;;;;;-145.18;100.00;46635.00;4970780;28;20038;-66
2022/09/07 03:20:53;;;;;;;5.00;2.80;;;;;;;-145.18;100.00;46635.00;4971929;28;20073;-67
2022/09/07 03:23:18;;;;;;;5.90;3.43;;;;;;;-145.18;100.00;46633.06;4974349;28;20101;-66
2022/09/07 03:25:44;;;;;;;5.97;3.23;;;;;;;-145.18;100.00;46635.00;4957503;28;20480;-66
2022/09/07 03:28:10;;;;;;;5.67;3.30;;;;;;;-145.18;100.00;46636.94;4974256;28;20041;-66
2022/09/07 03:30:35;;;;;;;4.73;2.70;;;;;;;-145.18;100.00;46638.91;4974459;28;20041;-66
2022/09/07 03:33:01;;;;;;;4.20;2.60;;;;;;;-145.18;100.00;46633.06;4974202;28;20395;-67
2022/09/07 03:35:26;;;;;;;3.53;3.10;;;;;;;-145.18;100.00;46635.00;4974566;28;20054;-67
2022/09/07 03:37:51;;;;;;;6.07;2.97;;;;;;;-145.18;100.00;46638.91;4973297;28;20038;-67
2022/09/07 03:40:17;;;;;;;4.77;2.83;;;;;;;-145.18;100.00;46636.94;4974591;28;20071;-67
2022/09/07 03:42:46;;;;;;;3.87;2.80;;;;;;;-145.18;100.00;46633.06;4973972;28;20488;-67
2022/09/07 03:45:11;;;;;;;4.73;2.87;;;;;;;-145.18;100.00;46635.00;4974305;28;20109;-67
2022/09/07 03:47:37;;;;;;;6.77;2.77;;;;;;;-145.18;100.00;46638.91;4940368;28;20177;-67
2022/09/07 03:50:03;;;;;;;4.57;2.83;;;;;;;-145.18;100.00;46633.06;4974588;28;20034;-67
2022/09/07 03:52:29;;;;;;;4.27;2.90;;;;;;;-145.18;100.00;46633.06;4973914;28;20572;-67
2022/09/07 03:54:54;;;;;;;5.03;3.30;;;;;;;-145.18;100.00;46633.06;4974131;28;20038;-67
2022/09/07 03:57:19;;;;;;;5.33;3.03;;;;;;;-145.18;100.00;46635.00;4973910;28;20039;-67
2022/09/07 03:59:45;;;;;;;7.03;3.53;;;;;;;-145.18;100.00;46635.00;4969504;28;20035;-67
2022/09/07 04:02:12;;;;;;;8.40;3.37;;;;;;;-145.18;100.00;46631.09;4964399;28;20059;-66
2022/09/07 04:04:37;;;;;;;5.90;3.33;;;;;;;-145.18;100.00;46635.00;4963224;28;20106;-67
2022/09/07 04:07:03;;;;;;;6.37;3.50;;;;;;;-145.18;100.00;46633.06;4963551;28;20034;-66
2022/09/07 04:09:28;;;;;;;5.03;3.93;;;;;;;-145.18;100.00;46633.06;4967958;28;20041;-67
2022/09/07 04:11:53;;;;;;;7.57;3.90;;;;;;;-145.18;100.00;46636.94;4962519;28;20047;-67
2022/09/07 04:14:19;;;;;;;5.90;3.77;;;;;;;-145.18;100.00;46638.91;4966550;28;20043;-67
2022/09/07 04:16:44;;;;;;;7.93;4.47;;;;;;;-145.18;100.00;46633.06;4962555;28;20036;-67
2022/09/07 04:19:10;;;;;;;6.00;3.63;;;;;;;-145.18;100.00;46635.00;4969482;28;20085;-67
2022/09/07 04:21:35;;;;;;;6.93;4.43;;;;;;;-145.18;100.00;46636.94;4972818;28;20500;-67
2022/09/07 04:24:01;;;;;;;9.30;4.57;;;;;;;-145.18;100.00;46635.00;4973743;28;20038;-66
2022/09/07 04:26:29;;;;;;;5.90;4.17;;;;;;;-145.18;100.00;46635.00;4956097;28;20472;-67
2022/09/07 04:28:55;;;;;;;6.93;4.60;;;;;;;-145.18;100.00;46636.94;4972860;28;20023;-67
2022/09/07 04:31:21;;;;;;;9.40;4.53;;;;;;;-145.18;100.00;46635.00;4973021;28;20053;-67
2022/09/07 04:33:49;;;;;;;4.73;3.80;;;;;;;-145.18;100.00;46635.00;4972482;28;20031;-67
2022/09/07 04:36:16;;;;;;;4.97;4.10;;;;;;;-145.18;100.00;46636.94;4973943;28;20032;-67
2022/09/07 04:38:42;;;;;;;11.23;4.97;;;;;;;-145.18;100.00;46635.00;4973159;28;20471;-68
2022/09/07 04:41:16;;;;;;;7.83;5.20;;;;;;;-145.18;100.00;46636.94;4973541;28;20030;-66
2022/09/07 04:43:42;;;;;;;7.77;4.33;;;;;;;-145.18;100.00;46635.00;4965281;28;20043;-66
2022/09/07 04:46:18;;;;;;;6.50;4.87;;;;;;;-145.18;100.00;46636.94;4960636;28;20439;-68
2022/09/07 04:48:50;;;;;;;8.17;5.40;;;;;;;-145.18;100.00;46636.94;4953599;29;20039;-68
2022/09/07 04:51:17;;;;;;;9.67;5.17;;;;;;;-145.18;100.00;46635.00;4953189;29;20587;-69
2022/09/07 04:53:42;;;;;;;8.67;5.40;;;;;;;-145.18;100.00;46636.94;4952871;29;20459;-69
2022/09/07 04:56:08;;;;;;;8.83;6.03;;;;;;;-145.18;100.00;46636.94;4953638;29;20047;-68
2022/09/07 04:58:34;;;;;;;9.20;5.80;;;;;;;-145.18;100.00;46631.09;4953260;29;20034;-66
2022/09/07 05:01:05;;;;;;;9.47;6.43;;;;;;;-145.18;100.00;46636.94;4953676;29;20035;-68
2022/09/07 05:03:32;;;;;;;9.80;7.10;;;;;;;-145.18;100.00;46635.00;4953059;29;20047;-67
2022/09/07 05:06:00;;;;;;;9.17;7.60;;;;;;;-145.18;100.00;46636.94;4953630;28;20070;-67
2022/09/07 05:08:26;;;;;;;12.10;6.97;;;;;;;-145.18;100.00;46636.94;4953271;29;20031;-68
2022/09/07 05:10:53;;;;;;;10.63;6.93;;;;;;;-145.18;100.00;46636.94;4953400;29;20144;-67
2022/09/07 05:13:19;;;;;;;14.30;8.27;;;;;;;-145.18;100.00;46636.94;4953221;29;20043;-69
2022/09/07 05:15:45;;;;;;;12.47;7.67;;;;;;;-145.18;100.00;46636.94;4953545;29;20078;-68
2022/09/07 05:18:11;;;;;;;12.03;8.40;;;;;;;-145.18;100.00;46638.91;4952977;29;20400;-67
2022/09/07 05:20:37;;;;;;;12.37;9.20;;;;;;;-145.18;100.00;46640.88;4953639;29;20038;-66
2022/09/07 05:23:02;;;;;;;15.40;8.97;;;;;;;-145.18;100.00;46636.94;4952949;29;20121;-66
2022/09/07 05:25:28;;;;;;;12.47;8.87;;;;;;;-145.18;100.00;46638.91;4953441;29;20082;-66
2022/09/07 05:27:54;;;;;;;11.90;8.30;;;;;;;-145.18;100.00;46636.94;4952980;29;20401;-68
2022/09/07 05:30:20;;;;;;;11.40;8.57;;;;;;;-145.18;100.00;46636.94;4953665;29;20043;-68
2022/09/07 05:32:46;;;;;;;14.87;9.43;;;;;;;-145.18;100.00;46633.06;4968625;28;20057;-67
2022/09/07 05:35:12;;;;;;;16.27;10.90;;;;;;;-145.18;100.00;46636.94;4972977;28;20035;-69
2022/09/07 05:37:37;;;;;;;18.40;10.53;;;;;;;-145.18;100.00;46636.94;4972482;28;20030;-67
2022/09/07 05:40:04;;;;;;;19.83;11.60;;;;;;;-145.18;100.00;46638.91;4972471;28;20031;-69
2022/09/07 05:42:30;;;;;;;24.00;13.20;;;;;;;-145.18;100.00;46635.00;4972272;28;20046;-67
2022/09/07 05:44:55;;;;;;;23.87;13.20;;;;;;;-145.18;100.00;46633.06;4972760;28;20039;-67
2022/09/07 05:47:21;;;;;;;18.13;13.63;;;;;;;-145.18;100.00;46638.91;4972329;28;20175;-67
2022/09/07 05:49:46;;;;;;;21.20;13.50;;;;;;;-145.18;100.00;46636.94;4972298;28;20475;-69
2022/09/07 05:52:12;;;;;;;19.17;13.90;;;;;;;-145.18;100.00;46633.06;4972116;28;20081;-67
2022/09/07 05:54:37;;;;;;;21.50;14.17;;;;;;;-145.18;100.00;46633.06;4955245;28;20032;-68
2022/09/07 05:57:03;;;;;;;20.00;15.20;;;;;;;-145.18;100.00;46633.06;4972391;28;20054;-68
2022/09/07 05:59:28;;;;;;;26.97;15.70;;;;;;;-145.18;100.00;46636.94;4972053;28;20402;-68
2022/09/07 06:01:54;;;;;;;24.70;15.40;;;;;;;-145.18;100.00;46635.00;4971962;28;20058;-69
2022/09/07 06:04:19;;;;;;;21.53;14.77;;;;;;;-145.18;100.00;46638.91;4972081;28;20039;-68
2022/09/07 06:06:44;;;;;;;20.70;15.13;;;;;;;-145.18;100.00;46635.00;4972236;28;20035;-69
2022/09/07 06:09:11;;;;;;;23.17;16.43;;;;;;;-145.18;100.00;46638.91;4971885;28;20384;-69
2022/09/07 06:11:37;;;;;;;21.10;15.77;;;;;;;-145.18;100.00;46635.00;4972130;28;20125;-69
2022/09/07 06:14:03;;;;;;;20.57;15.33;;;;;;;-145.18;100.00;46631.09;4971749;28;20102;-68
2022/09/07 06:16:32;;;;;;;23.50;16.77;;;;;;;-145.18;100.00;46631.09;4971946;28;20042;-69
2022/09/07 06:18:58;;;;;;;23.17;14.80;;;;;;;-145.18;100.00;46636.94;4971263;28;20066;-69
2022/09/07 06:21:23;;;;;;;20.83;16.40;;;;;;;-145.18;100.00;46633.06;4971310;28;20051;-69
2022/09/07 06:23:50;;;;;;;20.93;16.67;;;;;;;-145.18;100.00;46635.00;4971459;28;20089;-69
2022/09/07 06:26:16;;;;;;;19.23;15.80;;;;;;;-145.18;100.00;46635.00;4972045;28;20495;-69
2022/09/07 06:28:44;;;;;;;25.97;16.37;;;;;;;-145.18;100.00;46633.06;4971618;28;20039;-69
2022/09/07 06:31:18;;;;;;;23.83;15.40;;;;;;;-145.18;100.00;46636.94;4954446;28;20431;-69
2022/09/07 06:33:44;;;;;;;21.80;15.70;;;;;;;-145.18;100.00;46636.94;4971507;28;20042;-69
2022/09/07 06:36:20;;;;;;;22.03;16.37;;;;;;;-145.18;100.00;46635.00;4971991;28;20037;-69
2022/09/07 06:38:47;;;;;;;20.17;15.77;;;;;;;-145.18;100.00;46635.00;4971190;28;20034;-69
2022/09/07 06:41:23;;;;;;;27.60;16.97;;;;;;;-145.18;100.00;46636.94;4971889;28;20039;-69
2022/09/07 06:43:49;;;;;;;22.47;16.63;;;;;;;-145.18;100.00;46633.06;4971023;28;20500;-69
2022/09/07 06:46:16;;;;;;;26.63;15.83;;;;;;;-145.18;100.00;46635.00;4971980;28;20067;-69
2022/09/07 06:48:41;;;;;;;20.47;16.43;;;;;;;-145.18;100.00;46633.06;4971506;28;20031;-69
2022/09/07 06:51:17;;;;;;;24.67;16.40;;;;;;;-145.18;100.00;46635.00;4971431;28;20498;-69
2022/09/07 06:53:43;;;;;;;25.73;16.63;;;;;;;-145.18;100.00;46595.94;4971165;28;20054;-69
2022/09/07 06:56:12;;;;;;;20.03;16.70;;;;;;;-145.18;100.00;46595.94;4973463;28;20394;-69
2022/09/07 06:58:38;;;;;;;19.30;15.67;;;;;;;-145.18;100.00;46593.97;4975494;28;20038;-69
2022/09/07 07:01:06;;;;;;;20.23;15.90;;;;;;;-145.18;100.00;46593.97;4975383;28;20046;-69
2022/09/07 07:03:31;;;;;;;20.83;14.13;;;;;;;-145.18;100.00;46595.94;4975088;28;20179;-69
2022/09/07 07:05:57;;;;;;;19.40;16.10;;;;;;;-145.18;100.00;46593.97;4975286;28;20043;-69
2022/09/07 07:08:24;;;;;;;25.40;16.53;;;;;;;-145.18;100.00;46590.06;4975018;28;20491;-69
2022/09/07 07:10:51;;;;;;;22.60;16.37;;;;;;;-145.18;100.00;46590.06;4957807;28;20395;-68
2022/09/07 07:13:17;;;;;;;24.70;17.30;;;;;;;-145.18;100.00;46593.97;4975065;28;20124;-69
2022/09/07 07:15:43;;;;;;;24.40;16.87;;;;;;;-145.18;100.00;46592.03;4957955;28;20069;-69
2022/09/07 07:18:09;;;;;;;20.70;16.87;;;;;;;-145.18;100.00;46593.97;4974601;28;20117;-69
2022/09/07 07:20:36;;;;;;;25.30;17.97;;;;;;;-145.18;100.00;46592.03;4975468;28;20047;-69
2022/09/07 07:23:01;;;;;;;22.63;16.13;;;;;;;-145.18;100.00;46592.03;4974466;28;20068;-69
2022/09/07 07:25:27;;;;;;;23.30;17.07;;;;;;;-145.18;100.00;46595.94;4975316;28;20035;-69
2022/09/07 07:27:52;;;;;;;24.33;18.63;;;;;;;-145.18;100.00;46593.97;4974657;28;20501;-69
2022/09/07 07:30:19;;;;;;;24.57;18.57;;;;;;;-145.18;100.00;46593.97;4975201;28;20491;-69
2022/09/07 07:32:44;;;;;;;30.33;22.80;;;;;;;-145.18;100.00;46595.94;4974581;28;20816;-70
2022/09/07 07:35:10;;;;;;;29.50;24.60;;;;;;;-145.18;100.00;46597.88;4974993;28;20174;-70
2022/09/07 07:37:37;;;;;;;35.47;27.80;;;;;;;-145.18;100.00;46595.94;4974626;28;20031;-69
2022/09/07 07:40:05;;;;;;;38.07;30.73;;;;;;;-145.18;100.00;46599.84;4974563;28;20680;-70
2022/09/07 07:42:31;;;;;;;39.97;30.07;;;;;;;-145.18;100.00;46599.84;4974797;28;20042;-70
2022/09/07 07:44:57;;;;;;;41.03;31.93;;;;;;;-145.18;100.00;46597.88;4974722;28;20059;-70
2022/09/07 07:47:22;;;;;;;49.60;33.50;;;;;;;-145.18;100.00;46597.88;4974979;28;20192;-69
2022/09/07 07:49:48;;;;;;;37.90;30.87;;;;;;;-145.18;100.00;46601.78;4974092;28;20042;-70
2022/09/07 07:52:15;;;;;;;36.13;29.93;;;;;;;-145.18;100.00;46603.75;4974584;28;20518;-67
2022/09/07 07:54:41;;;;;;;34.10;27.73;;;;;;;-145.18;100.00;46603.75;4974200;28;20480;-69
2022/09/07 07:57:06;;;;;;;31.13;23.70;;;;;;;-145.18;100.00;46609.59;4957455;28;20035;-69
2022/09/07 07:59:33;;;;;;;26.57;21.80;;;;;;;-145.18;100.00;46609.59;4974528;28;20121;-69
2022/09/07 08:02:03;;;;;;;28.63;21.53;;;;;;;-145.18;100.00;46609.59;4973381;28;20578;-69
2022/09/07 08:04:32;;;;;;;29.60;22.30;;;;;;;-145.18;100.00;46611.56;4974057;28;20391;-69
2022/09/07 08:06:57;;;;;;;27.93;21.20;;;;;;;-145.18;100.00;46613.50;4973678;28;20117;-69
2022/09/07 08:09:23;;;;;;;27.03;22.10;;;;;;;-145.18;100.00;46609.59;4973743;28;20121;-69
2022/09/07 08:11:48;;;;;;;28.43;22.43;;;;;;;-145.18;100.00;46613.50;4974015;28;20391;-69
2022/09/07 08:14:13;;;;;;;33.53;24.00;;;;;;;-145.18;100.00;46613.50;4973908;28;20476;-69
2022/09/07 08:16:42;;;;;;;26.23;22.10;;;;;;;-145.18;100.00;46613.50;4974484;28;20046;-69
2022/09/07 08:19:07;;;;;;;23.50;20.93;;;;;;;-145.18;100.00;46613.50;4968861;28;20085;-69
2022/09/07 08:21:33;;;;;;;24.13;20.97;;;;;;;-145.18;100.00;46617.41;4971368;28;20030;-69
2022/09/07 08:23:58;;;;;;;26.27;21.03;;;;;;;-145.18;100.00;46615.47;4970740;28;20035;-69
2022/09/07 08:26:24;;;;;;;25.13;21.93;;;;;;;-145.18;100.00;46615.47;4974158;28;20145;-69
2022/09/07 08:28:50;;;;;;;26.73;21.40;;;;;;;-145.18;100.00;46619.38;4973428;28;20041;-69
2022/09/07 08:31:16;;;;;;;26.13;21.90;;;;;;;-145.18;100.00;46617.41;4973967;28;20491;-68
2022/09/07 08:33:42;;;;;;;26.13;21.97;;;;;;;-145.18;100.00;46619.38;4973000;28;20415;-68
2022/09/07 08:36:11;;;;;;;26.93;21.40;;;;;;;-145.18;100.00;46621.31;4973013;28;20053;-68
2022/09/07 08:38:37;;;;;;;24.87;22.00;;;;;;;-145.18;100.00;46621.31;4973617;28;20038;-68
2022/09/07 08:41:39;;;;;;;28.63;21.73;;;;;;;-145.18;100.00;46621.31;4973597;28;20039;-69
2022/09/07 08:44:15;;;;;;;30.27;21.07;;;;;;;-145.18;100.00;46627.19;4972664;28;20034;-68
2022/09/07 08:46:57;;;;;;;26.67;21.13;;;;;;;-145.18;100.00;46625.22;4972747;28;20089;-69
2022/09/07 08:49:42;;;;;;;24.20;20.67;;;;;;;-145.18;100.00;46627.19;4973356;28;20042;-69
2022/09/07 08:52:22;;;;;;;23.98;21.33;;;;;;;-145.18;100.00;46631.09;4973378;28;20488;-69
2022/09/07 08:55:02;;;;;;;23.50;20.40;;;;;;;-145.18;100.00;46623.28;4972985;28;20499;-69
2022/09/07 08:57:35;;;;;;;26.00;20.07;;;;;;;-145.18;100.00;46629.13;4973569;28;20045;-69
2022/09/07 09:00:07;;;;;;;24.37;18.50;;;;;;;-145.18;100.00;46635.00;4972074;28;20042;-69
2022/09/07 09:02:33;;;;;;;22.67;18.93;;;;;;;-145.18;100.00;46633.06;4973260;28;20130;-69
2022/09/07 09:04:59;;;;;;;23.17;19.87;;;;;;;-145.18;100.00;46631.09;4972850;28;20035;-68
2022/09/07 09:07:34;;;;;;;23.07;19.10;;;;;;;-145.18;100.00;46633.06;4973232;28;20097;-69
2022/09/07 09:10:29;;;;;;;21.75;19.15;;;;;;;-145.18;100.00;46638.91;4972624;28;20058;-69
2022/09/07 09:13:17;;;;;;;21.00;17.93;;;;;;;-145.18;100.00;46638.91;4971848;28;20035;-69
2022/09/07 09:15:50;;;;;;;20.50;16.43;;;;;;;-145.18;100.00;46644.78;4973053;28;20045;-69
2022/09/07 09:18:26;;;;;;;20.33;16.53;;;;;;;-145.18;100.00;46640.88;4971589;28;20047;-69
2022/09/07 09:20:56;;;;;;;18.50;15.67;;;;;;;-145.18;100.00;46640.88;4972930;28;20523;-68
2022/09/07 09:23:39;;;;;;;21.63;14.47;;;;;;;-145.18;100.00;46646.72;4972683;28;20487;-69
2022/09/07 09:26:15;;;;;;;22.93;14.77;;;;;;;-145.18;100.00;46648.69;4972132;28;20033;-69
2022/09/07 09:28:40;;;;;;;19.00;13.77;;;;;;;-145.18;100.00;46650.63;4972469;28;20387;-68
2022/09/07 09:31:16;;;;;;;16.30;10.33;;;;;;;-145.18;100.00;46648.69;4971856;28;20041;-68
2022/09/07 09:33:41;;;;;;;;;;;;;;;-145.18;100.00;46652.59;4972820;28;20035;-68
2022/09/07 09:36:24;;;;;;;19.00;10.60;;;;;;;-145.18;100.00;46654.53;4972617;28;19914;-68
2022/09/07 09:38:49;;;;;;;21.67;10.50;;;;;;;-145.18;100.00;46652.59;4972370;28;20121;-68
2022/09/07 09:41:15;;;;;;;17.10;11.60;;;;;;;-145.18;100.00;46660.41;4972525;28;20098;-69
2022/09/07 09:43:51;;;;;;;12.67;9.40;;;;;;;-145.18;100.00;46662.34;4970629;28;20042;-69
2022/09/07 09:46:19;;;;;;;16.50;9.63;;;;;;;-145.18;100.00;46664.31;4971874;28;20031;-69
2022/09/07 09:48:52;;;;;;;16.33;9.70;;;;;;;-145.18;100.00;46666.25;4972027;28;20510;-69
2022/09/07 09:51:18;;;;;;;13.93;9.30;;;;;;;-145.18;100.00;46664.31;4972434;28;20031;-69
2022/09/07 09:53:56;;;;;;;16.47;8.30;;;;;;;-145.18;100.00;46668.22;4971932;28;20042;-68
2022/09/07 09:56:35;;;;;;;17.80;7.50;;;;;;;-145.18;100.00;46666.25;4972285;28;20027;-68
2022/09/07 09:59:15;;;;;;;13.30;7.03;;;;;;;-145.18;100.00;46664.31;4971506;28;20089;-68
2022/09/07 10:01:42;;;;;;;14.43;6.57;;;;;;;-145.18;100.00;46662.34;4971827;28;20427;-68
2022/09/07 10:04:17;;;;;;;14.53;6.80;;;;;;;-145.18;100.00;46633.06;4971476;28;20019;-68
2022/09/07 10:06:51;;;;;;;15.63;6.57;;;;;;;-145.18;100.00;46642.81;4972268;28;20473;-67
2022/09/07 10:09:25;;;;;;;15.80;7.43;;;;;;;-145.18;100.00;46664.31;4970571;28;20038;-67
2022/09/07 10:11:58;;;;;;;13.27;7.13;;;;;;;-145.18;100.00;46672.13;4971974;28;20041;-67
2022/09/07 10:14:44;;;;;;;15.30;6.47;;;;;;;-145.18;100.00;46660.41;4971800;28;20484;-67
2022/09/07 10:17:13;;;;;;;11.97;6.83;;;;;;;-145.18;100.00;46650.63;4971894;28;20105;-67
2022/09/07 10:19:41;;;;;;;12.23;6.27;;;;;;;-145.18;100.00;46617.41;4971288;28;20023;-67
2022/09/07 10:22:35;;;;;;;12.27;5.83;;;;;;;-145.18;100.00;46635.00;4971779;28;20081;-67
2022/09/07 10:25:03;;;;;;;11.77;4.00;;;;;;;-145.18;100.00;46631.09;4970937;28;20038;-67
2022/09/07 10:27:37;;;;;;;11.10;4.80;;;;;;;-145.18;100.00;46584.22;4971875;28;20030;-67
2022/09/07 10:30:13;;;;;;;9.83;3.83;;;;;;;-145.18;100.00;46545.16;4970322;28;20019;-67
2022/09/07 10:33:09;;;;;;;9.27;4.13;;;;;;;-145.18;100.00;46537.34;4970953;28;20409;-67
2022/09/07 10:36:30;;;;;;;11.00;3.97;;;;;;;-145.18;100.00;46539.28;4955497;28;20046;-67
2022/09/07 10:39:17;;;;;;;10.30;3.90;;;;;;;-145.18;100.00;46541.25;4854302;29;20506;-67
2022/09/07 10:41:58;;;;;;;10.33;3.27;;;;;;;-145.18;100.00;46543.19;4965920;28;20050;-67
2022/09/07 10:44:40;;;;;;;12.27;4.00;;;;;;;-145.18;100.00;46537.34;4971169;28;20023;-67
2022/09/07 10:47:24;;;;;;;9.07;3.47;;;;;;;-145.18;100.00;46545.16;4971308;28;20042;-67
2022/09/07 10:49:55;;;;;;;11.33;3.40;;;;;;;-145.18;100.00;46543.19;4970323;28;20035;-67
2022/09/07 10:52:33;;;;;;;12.47;3.07;;;;;;;-145.18;100.00;46552.97;4971556;28;20034;-67
2022/09/07 10:55:25;;;;;;;10.93;4.07;;;;;;;-145.18;100.00;46547.09;4970856;28;20118;-67
2022/09/07 10:58:16;;;;;;;10.77;3.77;;;;;;;-145.18;100.00;46535.38;4971305;28;20070;-67
2022/09/07 11:01:23;;;;;;;10.17;4.00;;;;;;;-145.18;100.00;46551.00;4971558;28;20029;-67
2022/09/07 11:04:13;;;;;;;7.55;3.72;;;;;;;-145.18;100.00;46537.34;4970991;28;20038;-67
2022/09/07 11:06:47;;;;;;;10.13;4.23;;;;;;;-145.18;100.00;46539.28;4971325;28;20038;-67
2022/09/07 11:10:07;;;;;;;12.27;3.97;;;;;;;-145.18;100.00;46535.38;4971057;28;20075;-67
2022/09/07 11:12:37;;;;;;;12.77;3.27;;;;;;;-145.18;100.00;46529.53;4892624;29;20068;-67
2022/09/07 11:15:05;;;;;;;10.68;3.25;;;;;;;-145.18;100.00;46510.00;4956664;28;20511;-67
2022/09/07 11:17:42;;;;;;;7.55;3.20;;;;;;;-145.18;100.00;46533.44;4971230;28;20110;-67
2022/09/07 11:20:15;;;;;;;10.60;2.78;;;;;;;-145.18;100.00;46533.44;4970603;28;20039;-67
2022/09/07 11:22:50;;;;;;;10.43;2.90;;;;;;;-145.18;100.00;46523.66;4971323;28;20039;-66
2022/09/07 11:25:22;;;;;;;6.47;3.15;;;;;;;-145.18;100.00;46535.38;4970879;28;20150;-67